sensor_id;sensor_type;location;lat;lon;timestamp;P1;durP1;ratioP1;P2;durP2;ratioP2
21601;SDS011;10963;50.934;4.668;2023-11-21T00:01:04;70.37;;;31.07;;
21601;SDS011;10963;50.934;4.668;2023-11-21T00:03:30;59.40;;;29.43;;
21601;SDS011;10963;50.934;4.668;2023-11-21T00:05:56;69.00;;;30.17;;
21601;SDS011;10963;50.934;4.668;2023-11-21T00:08:25;67.67;;;30.57;;
21601;SDS011;10963;50.934;4.668;2023-11-21T00:10:52;72.43;;;30.77;;
21601;SDS011;10963;50.934;4.668;2023-11-21T00:13:18;62.97;;;29.87;;
21601;SDS011;10963;50.934;4.668;2023-11-21T00:15:43;71.17;;;29.17;;
21601;SDS011;10963;50.934;4.668;2023-11-21T00:18:09;72.03;;;30.33;;
21601;SDS011;10963;50.934;4.668;2023-11-21T00:20:37;72.70;;;28.43;;
21601;SDS011;10963;50.934;4.668;2023-11-21T00:23:03;68.47;;;28.27;;
21601;SDS011;10963;50.934;4.668;2023-11-21T00:25:32;73.40;;;29.33;;
21601;SDS011;10963;50.934;4.668;2023-11-21T00:28:00;75.40;;;30.07;;
21601;SDS011;10963;50.934;4.668;2023-11-21T00:30:26;72.87;;;29.43;;
21601;SDS011;10963;50.934;4.668;2023-11-21T00:32:56;68.60;;;27.93;;
21601;SDS011;10963;50.934;4.668;2023-11-21T00:35:23;78.83;;;28.90;;
21601;SDS011;10963;50.934;4.668;2023-11-21T00:37:51;69.10;;;28.07;;
21601;SDS011;10963;50.934;4.668;2023-11-21T00:40:17;63.47;;;27.13;;
21601;SDS011;10963;50.934;4.668;2023-11-21T00:42:46;60.90;;;27.30;;
21601;SDS011;10963;50.934;4.668;2023-11-21T00:45:12;62.67;;;26.17;;
21601;SDS011;10963;50.934;4.668;2023-11-21T00:47:38;62.77;;;24.23;;
21601;SDS011;10963;50.934;4.668;2023-11-21T00:50:04;64.43;;;24.10;;
21601;SDS011;10963;50.934;4.668;2023-11-21T00:52:37;57.53;;;23.77;;
21601;SDS011;10963;50.934;4.668;2023-11-21T00:55:03;71.17;;;25.07;;
21601;SDS011;10963;50.934;4.668;2023-11-21T00:57:29;58.00;;;22.67;;
21601;SDS011;10963;50.934;4.668;2023-11-21T00:59:55;59.57;;;22.60;;
21601;SDS011;10963;50.934;4.668;2023-11-21T01:02:21;65.20;;;23.63;;
21601;SDS011;10963;50.934;4.668;2023-11-21T01:04:47;66.93;;;24.00;;
21601;SDS011;10963;50.934;4.668;2023-11-21T01:07:15;60.87;;;23.30;;
21601;SDS011;10963;50.934;4.668;2023-11-21T01:09:41;56.67;;;22.90;;
21601;SDS011;10963;50.934;4.668;2023-11-21T01:12:07;53.87;;;21.20;;
21601;SDS011;10963;50.934;4.668;2023-11-21T01:14:32;57.67;;;21.23;;
21601;SDS011;10963;50.934;4.668;2023-11-21T01:17:02;60.97;;;21.57;;
21601;SDS011;10963;50.934;4.668;2023-11-21T01:19:32;55.77;;;20.60;;
21601;SDS011;10963;50.934;4.668;2023-11-21T01:22:00;52.63;;;21.60;;
21601;SDS011;10963;50.934;4.668;2023-11-21T01:24:26;63.07;;;22.70;;
21601;SDS011;10963;50.934;4.668;2023-11-21T01:26:51;56.97;;;21.00;;
21601;SDS011;10963;50.934;4.668;2023-11-21T01:29:17;54.80;;;21.03;;
21601;SDS011;10963;50.934;4.668;2023-11-21T01:31:43;58.17;;;21.23;;
21601;SDS011;10963;50.934;4.668;2023-11-21T01:34:09;51.13;;;19.37;;
21601;SDS011;10963;50.934;4.668;2023-11-21T01:36:39;53.87;;;19.63;;
21601;SDS011;10963;50.934;4.668;2023-11-21T01:39:07;59.30;;;19.80;;
21601;SDS011;10963;50.934;4.668;2023-11-21T01:41:35;67.33;;;22.23;;
21601;SDS011;10963;50.934;4.668;2023-11-21T01:44:04;59.90;;;21.47;;
21601;SDS011;10963;50.934;4.668;2023-11-21T01:46:32;62.20;;;22.93;;
21601;SDS011;10963;50.934;4.668;2023-11-21T01:49:01;65.67;;;22.50;;
21601;SDS011;10963;50.934;4.668;2023-11-21T01:51:27;59.47;;;22.73;;
21601;SDS011;10963;50.934;4.668;2023-11-21T01:53:52;59.93;;;23.00;;
21601;SDS011;10963;50.934;4.668;2023-11-21T01:56:18;69.30;;;22.37;;
21601;SDS011;10963;50.934;4.668;2023-11-21T01:58:44;58.53;;;20.33;;
21601;SDS011;10963;50.934;4.668;2023-11-21T02:01:13;66.03;;;21.10;;
21601;SDS011;10963;50.934;4.668;2023-11-21T02:03:39;60.47;;;20.20;;
21601;SDS011;10963;50.934;4.668;2023-11-21T02:06:09;61.17;;;21.87;;
21601;SDS011;10963;50.934;4.668;2023-11-21T02:08:40;61.53;;;19.93;;
21601;SDS011;10963;50.934;4.668;2023-11-21T02:11:09;53.47;;;20.60;;
21601;SDS011;10963;50.934;4.668;2023-11-21T02:13:38;57.50;;;21.37;;
21601;SDS011;10963;50.934;4.668;2023-11-21T02:16:08;65.27;;;20.20;;
21601;SDS011;10963;50.934;4.668;2023-11-21T02:18:35;62.57;;;22.60;;
21601;SDS011;10963;50.934;4.668;2023-11-21T02:21:03;65.70;;;24.13;;
21601;SDS011;10963;50.934;4.668;2023-11-21T02:23:29;67.47;;;21.27;;
21601;SDS011;10963;50.934;4.668;2023-11-21T02:25:55;60.33;;;21.50;;
21601;SDS011;10963;50.934;4.668;2023-11-21T02:28:21;64.63;;;21.67;;
21601;SDS011;10963;50.934;4.668;2023-11-21T02:30:51;65.50;;;22.33;;
21601;SDS011;10963;50.934;4.668;2023-11-21T02:33:21;66.03;;;22.37;;
21601;SDS011;10963;50.934;4.668;2023-11-21T02:35:49;67.80;;;20.27;;
21601;SDS011;10963;50.934;4.668;2023-11-21T02:38:20;63.53;;;21.73;;
21601;SDS011;10963;50.934;4.668;2023-11-21T02:40:46;68.57;;;21.23;;
21601;SDS011;10963;50.934;4.668;2023-11-21T02:43:16;66.07;;;21.07;;
21601;SDS011;10963;50.934;4.668;2023-11-21T02:45:42;71.97;;;22.13;;
21601;SDS011;10963;50.934;4.668;2023-11-21T02:48:11;65.83;;;22.07;;
21601;SDS011;10963;50.934;4.668;2023-11-21T02:50:36;63.93;;;22.07;;
21601;SDS011;10963;50.934;4.668;2023-11-21T02:53:02;71.37;;;21.07;;
21601;SDS011;10963;50.934;4.668;2023-11-21T02:55:31;64.93;;;21.13;;
21601;SDS011;10963;50.934;4.668;2023-11-21T02:58:02;69.97;;;22.17;;
21601;SDS011;10963;50.934;4.668;2023-11-21T03:00:31;66.13;;;21.87;;
21601;SDS011;10963;50.934;4.668;2023-11-21T03:02:59;67.30;;;21.57;;
21601;SDS011;10963;50.934;4.668;2023-11-21T03:05:25;61.57;;;19.87;;
21601;SDS011;10963;50.934;4.668;2023-11-21T03:07:54;56.23;;;20.00;;
21601;SDS011;10963;50.934;4.668;2023-11-21T03:10:20;65.03;;;21.80;;
21601;SDS011;10963;50.934;4.668;2023-11-21T03:12:46;69.70;;;21.63;;
21601;SDS011;10963;50.934;4.668;2023-11-21T03:15:11;67.33;;;19.83;;
21601;SDS011;10963;50.934;4.668;2023-11-21T03:17:37;57.27;;;19.17;;
21601;SDS011;10963;50.934;4.668;2023-11-21T03:20:05;63.50;;;20.83;;
21601;SDS011;10963;50.934;4.668;2023-11-21T03:22:35;60.53;;;21.27;;
21601;SDS011;10963;50.934;4.668;2023-11-21T03:25:02;56.33;;;18.80;;
21601;SDS011;10963;50.934;4.668;2023-11-21T03:27:30;57.40;;;19.33;;
21601;SDS011;10963;50.934;4.668;2023-11-21T03:29:58;64.10;;;20.40;;
21601;SDS011;10963;50.934;4.668;2023-11-21T03:32:29;64.23;;;20.93;;
21601;SDS011;10963;50.934;4.668;2023-11-21T03:34:58;61.93;;;21.87;;
21601;SDS011;10963;50.934;4.668;2023-11-21T03:37:24;58.63;;;21.40;;
21601;SDS011;10963;50.934;4.668;2023-11-21T03:39:50;67.00;;;22.77;;
21601;SDS011;10963;50.934;4.668;2023-11-21T03:42:18;59.10;;;21.30;;
21601;SDS011;10963;50.934;4.668;2023-11-21T03:44:46;58.20;;;20.30;;
21601;SDS011;10963;50.934;4.668;2023-11-21T03:47:12;56.60;;;20.60;;
21601;SDS011;10963;50.934;4.668;2023-11-21T03:49:38;57.17;;;20.63;;
21601;SDS011;10963;50.934;4.668;2023-11-21T03:52:04;48.13;;;19.97;;
21601;SDS011;10963;50.934;4.668;2023-11-21T03:54:30;63.13;;;19.73;;
21601;SDS011;10963;50.934;4.668;2023-11-21T03:56:59;60.83;;;22.53;;
21601;SDS011;10963;50.934;4.668;2023-11-21T03:59:25;60.27;;;21.47;;
21601;SDS011;10963;50.934;4.668;2023-11-21T04:01:51;52.70;;;20.80;;
21601;SDS011;10963;50.934;4.668;2023-11-21T04:04:19;58.17;;;20.70;;
21601;SDS011;10963;50.934;4.668;2023-11-21T04:06:45;68.10;;;21.63;;
21601;SDS011;10963;50.934;4.668;2023-11-21T04:09:10;54.17;;;20.20;;
21601;SDS011;10963;50.934;4.668;2023-11-21T04:11:36;54.80;;;21.30;;
21601;SDS011;10963;50.934;4.668;2023-11-21T04:14:02;49.53;;;19.87;;
21601;SDS011;10963;50.934;4.668;2023-11-21T04:16:27;57.63;;;20.83;;
21601;SDS011;10963;50.934;4.668;2023-11-21T04:18:53;57.50;;;21.43;;
21601;SDS011;10963;50.934;4.668;2023-11-21T04:21:19;54.83;;;20.50;;
21601;SDS011;10963;50.934;4.668;2023-11-21T04:23:45;67.70;;;21.27;;
21601;SDS011;10963;50.934;4.668;2023-11-21T04:26:14;53.67;;;21.03;;
21601;SDS011;10963;50.934;4.668;2023-11-21T04:28:39;48.97;;;20.03;;
21601;SDS011;10963;50.934;4.668;2023-11-21T04:31:05;49.87;;;18.67;;
21601;SDS011;10963;50.934;4.668;2023-11-21T04:33:33;53.80;;;20.80;;
21601;SDS011;10963;50.934;4.668;2023-11-21T04:36:01;56.70;;;21.93;;
21601;SDS011;10963;50.934;4.668;2023-11-21T04:38:27;50.63;;;18.47;;
21601;SDS011;10963;50.934;4.668;2023-11-21T04:40:53;52.97;;;20.83;;
21601;SDS011;10963;50.934;4.668;2023-11-21T04:43:18;49.90;;;19.00;;
21601;SDS011;10963;50.934;4.668;2023-11-21T04:45:46;51.63;;;18.20;;
21601;SDS011;10963;50.934;4.668;2023-11-21T04:48:12;51.37;;;20.13;;
21601;SDS011;10963;50.934;4.668;2023-11-21T04:50:39;50.87;;;19.33;;
21601;SDS011;10963;50.934;4.668;2023-11-21T04:53:04;55.87;;;19.30;;
21601;SDS011;10963;50.934;4.668;2023-11-21T04:55:32;47.30;;;19.60;;
21601;SDS011;10963;50.934;4.668;2023-11-21T04:57:58;52.60;;;19.53;;
21601;SDS011;10963;50.934;4.668;2023-11-21T05:00:24;43.77;;;18.43;;
21601;SDS011;10963;50.934;4.668;2023-11-21T05:02:49;53.90;;;19.33;;
21601;SDS011;10963;50.934;4.668;2023-11-21T05:05:15;50.17;;;19.00;;
21601;SDS011;10963;50.934;4.668;2023-11-21T05:07:41;57.37;;;18.13;;
21601;SDS011;10963;50.934;4.668;2023-11-21T05:10:07;47.80;;;18.77;;
21601;SDS011;10963;50.934;4.668;2023-11-21T05:12:36;48.33;;;18.43;;
21601;SDS011;10963;50.934;4.668;2023-11-21T05:15:06;48.90;;;19.37;;
21601;SDS011;10963;50.934;4.668;2023-11-21T05:17:36;48.07;;;19.90;;
21601;SDS011;10963;50.934;4.668;2023-11-21T05:20:07;49.70;;;19.77;;
21601;SDS011;10963;50.934;4.668;2023-11-21T05:22:35;50.73;;;19.40;;
21601;SDS011;10963;50.934;4.668;2023-11-21T05:25:01;49.80;;;19.57;;
21601;SDS011;10963;50.934;4.668;2023-11-21T05:27:28;56.90;;;19.73;;
21601;SDS011;10963;50.934;4.668;2023-11-21T05:29:55;52.47;;;19.67;;
21601;SDS011;10963;50.934;4.668;2023-11-21T05:32:23;57.90;;;20.17;;
21601;SDS011;10963;50.934;4.668;2023-11-21T05:34:50;52.83;;;19.33;;
21601;SDS011;10963;50.934;4.668;2023-11-21T05:37:15;52.27;;;19.53;;
21601;SDS011;10963;50.934;4.668;2023-11-21T05:39:42;49.60;;;17.40;;
21601;SDS011;10963;50.934;4.668;2023-11-21T05:42:13;49.07;;;17.93;;
21601;SDS011;10963;50.934;4.668;2023-11-21T05:44:41;54.27;;;17.93;;
21601;SDS011;10963;50.934;4.668;2023-11-21T05:47:10;49.33;;;18.20;;
21601;SDS011;10963;50.934;4.668;2023-11-21T05:49:38;44.17;;;16.60;;
21601;SDS011;10963;50.934;4.668;2023-11-21T05:52:05;46.90;;;17.93;;
21601;SDS011;10963;50.934;4.668;2023-11-21T05:54:31;44.10;;;16.87;;
21601;SDS011;10963;50.934;4.668;2023-11-21T05:56:59;47.87;;;18.70;;
21601;SDS011;10963;50.934;4.668;2023-11-21T05:59:30;41.43;;;16.57;;
21601;SDS011;10963;50.934;4.668;2023-11-21T06:01:55;39.80;;;16.47;;
21601;SDS011;10963;50.934;4.668;2023-11-21T06:04:21;46.00;;;16.93;;
21601;SDS011;10963;50.934;4.668;2023-11-21T06:06:54;39.00;;;16.40;;
21601;SDS011;10963;50.934;4.668;2023-11-21T06:09:22;52.23;;;17.60;;
21601;SDS011;10963;50.934;4.668;2023-11-21T06:11:52;47.20;;;16.60;;
21601;SDS011;10963;50.934;4.668;2023-11-21T06:14:20;45.23;;;18.20;;
21601;SDS011;10963;50.934;4.668;2023-11-21T06:16:46;52.97;;;17.43;;
21601;SDS011;10963;50.934;4.668;2023-11-21T06:19:12;48.50;;;18.23;;
21601;SDS011;10963;50.934;4.668;2023-11-21T06:21:40;52.37;;;18.70;;
21601;SDS011;10963;50.934;4.668;2023-11-21T06:24:12;47.57;;;17.83;;
21601;SDS011;10963;50.934;4.668;2023-11-21T06:26:40;50.57;;;17.17;;
21601;SDS011;10963;50.934;4.668;2023-11-21T06:29:06;41.77;;;16.53;;
21601;SDS011;10963;50.934;4.668;2023-11-21T06:31:32;54.63;;;17.20;;
21601;SDS011;10963;50.934;4.668;2023-11-21T06:34:00;60.50;;;20.37;;
21601;SDS011;10963;50.934;4.668;2023-11-21T06:36:25;53.77;;;18.63;;
21601;SDS011;10963;50.934;4.668;2023-11-21T06:38:54;55.60;;;18.80;;
21601;SDS011;10963;50.934;4.668;2023-11-21T06:41:20;51.43;;;18.37;;
21601;SDS011;10963;50.934;4.668;2023-11-21T06:43:48;44.00;;;18.03;;
21601;SDS011;10963;50.934;4.668;2023-11-21T06:46:18;47.60;;;18.93;;
21601;SDS011;10963;50.934;4.668;2023-11-21T06:48:49;46.17;;;18.27;;
21601;SDS011;10963;50.934;4.668;2023-11-21T06:51:17;43.23;;;17.93;;
21601;SDS011;10963;50.934;4.668;2023-11-21T06:53:45;48.23;;;17.00;;
21601;SDS011;10963;50.934;4.668;2023-11-21T06:56:17;60.63;;;19.13;;
21601;SDS011;10963;50.934;4.668;2023-11-21T06:58:45;43.70;;;18.47;;
21601;SDS011;10963;50.934;4.668;2023-11-21T07:01:12;50.63;;;18.43;;
21601;SDS011;10963;50.934;4.668;2023-11-21T07:03:38;45.23;;;18.07;;
21601;SDS011;10963;50.934;4.668;2023-11-21T07:06:07;59.30;;;19.57;;
21601;SDS011;10963;50.934;4.668;2023-11-21T07:08:38;62.63;;;21.30;;
21601;SDS011;10963;50.934;4.668;2023-11-21T07:11:07;53.60;;;21.63;;
21601;SDS011;10963;50.934;4.668;2023-11-21T07:13:32;53.37;;;20.10;;
21601;SDS011;10963;50.934;4.668;2023-11-21T07:15:58;60.93;;;21.37;;
21601;SDS011;10963;50.934;4.668;2023-11-21T07:18:26;56.30;;;20.63;;
21601;SDS011;10963;50.934;4.668;2023-11-21T07:20:55;54.60;;;20.87;;
21601;SDS011;10963;50.934;4.668;2023-11-21T07:23:20;49.93;;;19.37;;
21601;SDS011;10963;50.934;4.668;2023-11-21T07:25:50;53.90;;;19.37;;
21601;SDS011;10963;50.934;4.668;2023-11-21T07:28:18;53.43;;;19.83;;
21601;SDS011;10963;50.934;4.668;2023-11-21T07:30:44;52.73;;;19.10;;
21601;SDS011;10963;50.934;4.668;2023-11-21T07:33:10;42.33;;;18.67;;
21601;SDS011;10963;50.934;4.668;2023-11-21T07:35:35;54.03;;;19.57;;
21601;SDS011;10963;50.934;4.668;2023-11-21T07:38:01;54.57;;;19.77;;
21601;SDS011;10963;50.934;4.668;2023-11-21T07:40:28;55.17;;;20.07;;
21601;SDS011;10963;50.934;4.668;2023-11-21T07:42:54;57.93;;;20.83;;
21601;SDS011;10963;50.934;4.668;2023-11-21T07:45:22;46.50;;;21.00;;
21601;SDS011;10963;50.934;4.668;2023-11-21T07:47:48;46.93;;;19.33;;
21601;SDS011;10963;50.934;4.668;2023-11-21T07:50:14;44.93;;;21.87;;
21601;SDS011;10963;50.934;4.668;2023-11-21T07:52:40;46.10;;;20.53;;
21601;SDS011;10963;50.934;4.668;2023-11-21T07:55:05;52.40;;;20.33;;
21601;SDS011;10963;50.934;4.668;2023-11-21T07:57:35;47.67;;;20.67;;
21601;SDS011;10963;50.934;4.668;2023-11-21T08:00:03;53.10;;;21.47;;
21601;SDS011;10963;50.934;4.668;2023-11-21T08:02:34;46.47;;;20.50;;
21601;SDS011;10963;50.934;4.668;2023-11-21T08:05:00;51.90;;;21.93;;
21601;SDS011;10963;50.934;4.668;2023-11-21T08:07:28;54.73;;;21.83;;
21601;SDS011;10963;50.934;4.668;2023-11-21T08:09:54;56.73;;;23.60;;
21601;SDS011;10963;50.934;4.668;2023-11-21T08:12:22;53.57;;;22.03;;
21601;SDS011;10963;50.934;4.668;2023-11-21T08:14:51;53.83;;;22.33;;
21601;SDS011;10963;50.934;4.668;2023-11-21T08:17:17;60.07;;;25.07;;
21601;SDS011;10963;50.934;4.668;2023-11-21T08:19:45;48.37;;;21.77;;
21601;SDS011;10963;50.934;4.668;2023-11-21T08:22:14;65.20;;;24.27;;
21601;SDS011;10963;50.934;4.668;2023-11-21T08:24:43;50.87;;;23.50;;
21601;SDS011;10963;50.934;4.668;2023-11-21T08:27:11;60.37;;;24.27;;
21601;SDS011;10963;50.934;4.668;2023-11-21T08:29:41;62.27;;;23.80;;
21601;SDS011;10963;50.934;4.668;2023-11-21T08:32:07;62.20;;;24.30;;
21601;SDS011;10963;50.934;4.668;2023-11-21T08:34:33;64.03;;;25.07;;
21601;SDS011;10963;50.934;4.668;2023-11-21T08:36:58;72.63;;;24.40;;
21601;SDS011;10963;50.934;4.668;2023-11-21T08:39:25;66.10;;;24.23;;
21601;SDS011;10963;50.934;4.668;2023-11-21T08:41:54;74.10;;;25.23;;
21601;SDS011;10963;50.934;4.668;2023-11-21T08:44:20;72.67;;;25.27;;
21601;SDS011;10963;50.934;4.668;2023-11-21T08:46:46;77.47;;;26.17;;
21601;SDS011;10963;50.934;4.668;2023-11-21T08:49:12;66.97;;;25.70;;
21601;SDS011;10963;50.934;4.668;2023-11-21T08:51:44;84.13;;;28.30;;
21601;SDS011;10963;50.934;4.668;2023-11-21T08:54:10;80.57;;;26.47;;
21601;SDS011;10963;50.934;4.668;2023-11-21T08:56:39;77.47;;;26.87;;
21601;SDS011;10963;50.934;4.668;2023-11-21T08:59:05;75.57;;;27.43;;
21601;SDS011;10963;50.934;4.668;2023-11-21T09:01:32;67.73;;;26.90;;
21601;SDS011;10963;50.934;4.668;2023-11-21T09:03:58;73.00;;;26.53;;
21601;SDS011;10963;50.934;4.668;2023-11-21T09:06:27;78.30;;;28.40;;
21601;SDS011;10963;50.934;4.668;2023-11-21T09:08:53;71.17;;;27.70;;
21601;SDS011;10963;50.934;4.668;2023-11-21T09:11:21;72.13;;;26.20;;
21601;SDS011;10963;50.934;4.668;2023-11-21T09:13:46;65.80;;;27.63;;
21601;SDS011;10963;50.934;4.668;2023-11-21T09:16:16;83.37;;;28.30;;
21601;SDS011;10963;50.934;4.668;2023-11-21T09:18:42;61.60;;;27.27;;
21601;SDS011;10963;50.934;4.668;2023-11-21T09:21:10;75.23;;;28.60;;
21601;SDS011;10963;50.934;4.668;2023-11-21T09:23:36;64.93;;;26.63;;
21601;SDS011;10963;50.934;4.668;2023-11-21T09:26:06;68.13;;;27.33;;
21601;SDS011;10963;50.934;4.668;2023-11-21T09:28:32;69.87;;;26.53;;
21601;SDS011;10963;50.934;4.668;2023-11-21T09:30:57;63.13;;;26.83;;
21601;SDS011;10963;50.934;4.668;2023-11-21T09:33:23;69.80;;;25.33;;
21601;SDS011;10963;50.934;4.668;2023-11-21T09:35:50;63.23;;;24.87;;
21601;SDS011;10963;50.934;4.668;2023-11-21T09:38:20;74.33;;;27.17;;
21601;SDS011;10963;50.934;4.668;2023-11-21T09:40:46;63.40;;;25.90;;
21601;SDS011;10963;50.934;4.668;2023-11-21T09:43:18;62.57;;;25.27;;
21601;SDS011;10963;50.934;4.668;2023-11-21T09:45:47;61.70;;;23.73;;
21601;SDS011;10963;50.934;4.668;2023-11-21T09:48:19;54.97;;;24.43;;
21601;SDS011;10963;50.934;4.668;2023-11-21T09:50:47;66.10;;;24.87;;
21601;SDS011;10963;50.934;4.668;2023-11-21T09:53:24;61.20;;;23.63;;
21601;SDS011;10963;50.934;4.668;2023-11-21T09:55:55;74.73;;;23.87;;
21601;SDS011;10963;50.934;4.668;2023-11-21T09:58:21;65.00;;;23.40;;
21601;SDS011;10963;50.934;4.668;2023-11-21T10:00:51;78.10;;;25.40;;
21601;SDS011;10963;50.934;4.668;2023-11-21T10:03:21;75.87;;;24.67;;
21601;SDS011;10963;50.934;4.668;2023-11-21T10:05:50;83.17;;;25.80;;
21601;SDS011;10963;50.934;4.668;2023-11-21T10:08:16;82.80;;;24.63;;
21601;SDS011;10963;50.934;4.668;2023-11-21T10:10:43;87.90;;;27.00;;
21601;SDS011;10963;50.934;4.668;2023-11-21T10:13:11;77.73;;;24.57;;
21601;SDS011;10963;50.934;4.668;2023-11-21T10:15:38;76.93;;;24.13;;
21601;SDS011;10963;50.934;4.668;2023-11-21T10:18:06;77.40;;;26.27;;
21601;SDS011;10963;50.934;4.668;2023-11-21T10:20:33;93.23;;;28.27;;
21601;SDS011;10963;50.934;4.668;2023-11-21T10:22:59;91.90;;;26.63;;
21601;SDS011;10963;50.934;4.668;2023-11-21T10:25:29;92.37;;;27.53;;
21601;SDS011;10963;50.934;4.668;2023-11-21T10:28:01;81.37;;;26.27;;
21601;SDS011;10963;50.934;4.668;2023-11-21T10:30:35;81.63;;;27.87;;
21601;SDS011;10963;50.934;4.668;2023-11-21T10:33:05;93.33;;;29.10;;
21601;SDS011;10963;50.934;4.668;2023-11-21T10:35:45;91.93;;;28.70;;
21601;SDS011;10963;50.934;4.668;2023-11-21T10:38:20;95.20;;;27.90;;
21601;SDS011;10963;50.934;4.668;2023-11-21T10:40:48;80.00;;;27.93;;
21601;SDS011;10963;50.934;4.668;2023-11-21T10:43:14;89.60;;;27.70;;
21601;SDS011;10963;50.934;4.668;2023-11-21T10:45:41;86.87;;;28.20;;
21601;SDS011;10963;50.934;4.668;2023-11-21T10:48:07;74.53;;;25.47;;
21601;SDS011;10963;50.934;4.668;2023-11-21T10:50:41;81.10;;;26.93;;
21601;SDS011;10963;50.934;4.668;2023-11-21T10:53:09;74.60;;;24.93;;
21601;SDS011;10963;50.934;4.668;2023-11-21T10:55:36;80.53;;;26.07;;
21601;SDS011;10963;50.934;4.668;2023-11-21T10:58:03;66.97;;;26.30;;
21601;SDS011;10963;50.934;4.668;2023-11-21T11:00:30;71.70;;;25.40;;
21601;SDS011;10963;50.934;4.668;2023-11-21T11:02:57;74.83;;;25.83;;
21601;SDS011;10963;50.934;4.668;2023-11-21T11:05:25;76.93;;;26.40;;
21601;SDS011;10963;50.934;4.668;2023-11-21T11:08:04;77.60;;;24.00;;
21601;SDS011;10963;50.934;4.668;2023-11-21T11:10:31;74.13;;;24.87;;
21601;SDS011;10963;50.934;4.668;2023-11-21T11:12:57;69.93;;;24.10;;
21601;SDS011;10963;50.934;4.668;2023-11-21T11:15:24;63.90;;;24.17;;
21601;SDS011;10963;50.934;4.668;2023-11-21T11:17:51;69.33;;;23.10;;
21601;SDS011;10963;50.934;4.668;2023-11-21T11:20:27;68.20;;;23.83;;
21601;SDS011;10963;50.934;4.668;2023-11-21T11:23:23;68.57;;;23.03;;
21601;SDS011;10963;50.934;4.668;2023-11-21T11:29:18;50.70;;;20.20;;
21601;SDS011;10963;50.934;4.668;2023-11-21T11:34:10;47.60;;;18.77;;
21601;SDS011;10963;50.934;4.668;2023-11-21T11:36:49;47.87;;;19.03;;
21601;SDS011;10963;50.934;4.668;2023-11-21T11:39:27;61.93;;;17.90;;
21601;SDS011;10963;50.934;4.668;2023-11-21T11:42:08;43.30;;;17.53;;
21601;SDS011;10963;50.934;4.668;2023-11-21T11:47:17;44.80;;;17.67;;
21601;SDS011;10963;50.934;4.668;2023-11-21T11:50:07;46.30;;;18.37;;
21601;SDS011;10963;50.934;4.668;2023-11-21T11:52:37;43.97;;;16.37;;
21601;SDS011;10963;50.934;4.668;2023-11-21T11:55:05;49.97;;;17.67;;
21601;SDS011;10963;50.934;4.668;2023-11-21T11:57:33;42.83;;;17.60;;
21601;SDS011;10963;50.934;4.668;2023-11-21T12:00:19;38.07;;;15.83;;
21601;SDS011;10963;50.934;4.668;2023-11-21T12:02:53;34.17;;;15.27;;
21601;SDS011;10963;50.934;4.668;2023-11-21T12:05:23;37.77;;;15.43;;
21601;SDS011;10963;50.934;4.668;2023-11-21T12:08:01;36.47;;;14.40;;
21601;SDS011;10963;50.934;4.668;2023-11-21T12:10:34;33.47;;;13.50;;
21601;SDS011;10963;50.934;4.668;2023-11-21T12:15:33;33.77;;;13.03;;
21601;SDS011;10963;50.934;4.668;2023-11-21T12:18:00;28.43;;;12.90;;
21601;SDS011;10963;50.934;4.668;2023-11-21T12:20:26;25.63;;;12.73;;
21601;SDS011;10963;50.934;4.668;2023-11-21T12:22:53;27.83;;;12.93;;
21601;SDS011;10963;50.934;4.668;2023-11-21T12:25:24;29.77;;;12.77;;
21601;SDS011;10963;50.934;4.668;2023-11-21T12:27:53;23.70;;;11.87;;
21601;SDS011;10963;50.934;4.668;2023-11-21T12:30:20;32.03;;;12.83;;
21601;SDS011;10963;50.934;4.668;2023-11-21T12:32:50;19.77;;;9.97;;
21601;SDS011;10963;50.934;4.668;2023-11-21T12:35:23;23.73;;;10.37;;
21601;SDS011;10963;50.934;4.668;2023-11-21T12:37:54;23.23;;;9.73;;
21601;SDS011;10963;50.934;4.668;2023-11-21T12:40:22;20.63;;;9.47;;
21601;SDS011;10963;50.934;4.668;2023-11-21T12:42:49;16.97;;;7.60;;
21601;SDS011;10963;50.934;4.668;2023-11-21T12:45:23;14.80;;;8.60;;
21601;SDS011;10963;50.934;4.668;2023-11-21T12:47:56;14.13;;;7.27;;
21601;SDS011;10963;50.934;4.668;2023-11-21T12:50:32;15.73;;;8.00;;
21601;SDS011;10963;50.934;4.668;2023-11-21T12:53:03;16.00;;;8.30;;
21601;SDS011;10963;50.934;4.668;2023-11-21T12:55:33;15.90;;;7.80;;
21601;SDS011;10963;50.934;4.668;2023-11-21T12:58:03;18.73;;;8.33;;
21601;SDS011;10963;50.934;4.668;2023-11-21T13:00:44;19.37;;;7.47;;
21601;SDS011;10963;50.934;4.668;2023-11-21T13:03:13;13.90;;;7.27;;
21601;SDS011;10963;50.934;4.668;2023-11-21T13:05:44;13.60;;;7.63;;
21601;SDS011;10963;50.934;4.668;2023-11-21T13:08:16;14.47;;;7.40;;
21601;SDS011;10963;50.934;4.668;2023-11-21T13:10:46;18.23;;;8.07;;
21601;SDS011;10963;50.934;4.668;2023-11-21T13:13:13;16.03;;;8.00;;
21601;SDS011;10963;50.934;4.668;2023-11-21T13:15:55;15.53;;;7.30;;
21601;SDS011;10963;50.934;4.668;2023-11-21T13:18:26;15.27;;;8.50;;
21601;SDS011;10963;50.934;4.668;2023-11-21T13:20:56;16.40;;;8.33;;
21601;SDS011;10963;50.934;4.668;2023-11-21T13:23:24;15.60;;;8.80;;
21601;SDS011;10963;50.934;4.668;2023-11-21T13:25:53;17.03;;;7.80;;
21601;SDS011;10963;50.934;4.668;2023-11-21T13:28:21;15.10;;;6.10;;
21601;SDS011;10963;50.934;4.668;2023-11-21T13:30:49;15.40;;;7.57;;
21601;SDS011;10963;50.934;4.668;2023-11-21T13:33:17;11.30;;;5.77;;
21601;SDS011;10963;50.934;4.668;2023-11-21T13:35:46;8.60;;;5.43;;
21601;SDS011;10963;50.934;4.668;2023-11-21T13:38:17;9.90;;;5.43;;
21601;SDS011;10963;50.934;4.668;2023-11-21T13:40:47;9.90;;;5.47;;
21601;SDS011;10963;50.934;4.668;2023-11-21T13:43:17;7.90;;;5.20;;
21601;SDS011;10963;50.934;4.668;2023-11-21T13:45:46;11.10;;;5.23;;
21601;SDS011;10963;50.934;4.668;2023-11-21T13:48:13;12.07;;;5.17;;
21601;SDS011;10963;50.934;4.668;2023-11-21T13:50:45;7.40;;;4.77;;
21601;SDS011;10963;50.934;4.668;2023-11-21T13:53:20;13.10;;;4.90;;
21601;SDS011;10963;50.934;4.668;2023-11-21T13:55:52;10.10;;;4.47;;
21601;SDS011;10963;50.934;4.668;2023-11-21T13:58:25;6.63;;;4.07;;
21601;SDS011;10963;50.934;4.668;2023-11-21T14:01:11;11.63;;;5.23;;
21601;SDS011;10963;50.934;4.668;2023-11-21T14:04:04;10.30;;;5.30;;
21601;SDS011;10963;50.934;4.668;2023-11-21T14:06:51;10.07;;;5.77;;
21601;SDS011;10963;50.934;4.668;2023-11-21T14:09:22;12.27;;;6.03;;
21601;SDS011;10963;50.934;4.668;2023-11-21T14:12:00;15.97;;;6.53;;
21601;SDS011;10963;50.934;4.668;2023-11-21T14:14:31;12.00;;;6.70;;
21601;SDS011;10963;50.934;4.668;2023-11-21T14:16:57;12.80;;;7.23;;
21601;SDS011;10963;50.934;4.668;2023-11-21T14:19:23;13.77;;;7.33;;
21601;SDS011;10963;50.934;4.668;2023-11-21T14:21:57;17.23;;;7.57;;
21601;SDS011;10963;50.934;4.668;2023-11-21T14:24:27;18.53;;;8.17;;
21601;SDS011;10963;50.934;4.668;2023-11-21T14:26:54;16.23;;;7.30;;
21601;SDS011;10963;50.934;4.668;2023-11-21T14:29:20;13.53;;;7.73;;
21601;SDS011;10963;50.934;4.668;2023-11-21T14:31:51;28.40;;;8.70;;
21601;SDS011;10963;50.934;4.668;2023-11-21T14:34:21;16.23;;;8.93;;
21601;SDS011;10963;50.934;4.668;2023-11-21T14:36:47;25.60;;;9.67;;
21601;SDS011;10963;50.934;4.668;2023-11-21T14:39:17;19.37;;;8.50;;
21601;SDS011;10963;50.934;4.668;2023-11-21T14:41:52;13.90;;;8.37;;